Flight Sim Network - KHSE Airport Info

    KHSE (Billy Mitchell Airport)  Login to use Map Selector
   

  RUNWAY INFORMATION    |    Airport Elevation : 17ft    |    LAT : 35.2327995300293  /  LON : -75.6177978515625
Runway Number 07 / 25 Runway Width 75' Runway Length 3000'
Lighted Runway No Runway StatusOpen Runway Surface Asphalt
  CLOSE ALTERNATE AIRPORTS
ICAODistanceAirport NameLongest RWRW SurfaceMAP
7W626NMHyde Co4700FTAsphalt
KMQI41NMDare County Regional Airport4301FTAsphalt
12NC42NMAtlantic Field Mcolf Airport3678FTAsphalt
KFFA47NMFirst Flight Airport3000FTConcrete
NC1258NMLee Creek Airport5815FTAsphalt
KMRH59NMMichael J. Smith Field4249FTAsphalt
1NC759NMDonald's Air Park Inc.4000FTDirt
7NC262NMPine Island Airport3450FTAsphalt
KNKT65NMCherry Point MCAS /Cunningham Field/8984FTAsphalt
NC2865NMMeadstown Airstrip3600FTDirt
  AIRPORT WEATHER
60°F | 16°C
Temperature
96%
Humidity
30" | 1021mb
Pressure
10sm
Visibility
VFR
Flight Rules
FEW @ 12000ft
Initial Clouds
FAIR
Conditions
Wind Info
3/4/24 1:51Z
Updated

KHSE 040151Z AUTO 04006KT 10SM FEW120 16/16 A3017 RMK AO2 SLP215 T01610156
  AIRPORT CHARTS
Chart TypeChart Name & Link
MINTAKEOFF MINIMUMS
IAPRNAV (GPS) RWY 07
IAPRNAV (GPS) RWY 25
  AIRPORT FREQUENCIES
NameFrequency
CLEARANCE122.300
MULTICOM122.900
APPROACH119.750
DEPARTURE119.750

Powered by Virtual Airlines Manager